sensor_id;sensor_type;location;lat;lon;timestamp;temperature;humidity
70830;SHT30;58451;51.550;7.208;2023-12-20T00:00:11;8.33;88.03
70830;SHT30;58451;51.550;7.208;2023-12-20T00:01:44;8.31;88.00
70830;SHT30;58451;51.550;7.208;2023-12-20T00:03:16;8.32;87.97
70830;SHT30;58451;51.550;7.208;2023-12-20T00:04:48;8.33;87.97
70830;SHT30;58451;51.550;7.208;2023-12-20T00:06:20;8.34;87.92
70830;SHT30;58451;51.550;7.208;2023-12-20T00:07:52;8.33;87.93
70830;SHT30;58451;51.550;7.208;2023-12-20T00:09:24;8.31;87.92
70830;SHT30;58451;51.550;7.208;2023-12-20T00:10:56;8.33;87.95
70830;SHT30;58451;51.550;7.208;2023-12-20T00:12:28;8.31;87.93
70830;SHT30;58451;51.550;7.208;2023-12-20T00:13:59;8.31;87.93
70830;SHT30;58451;51.550;7.208;2023-12-20T00:15:31;8.30;87.85
70830;SHT30;58451;51.550;7.208;2023-12-20T00:17:03;8.28;87.85
70830;SHT30;58451;51.550;7.208;2023-12-20T00:18:35;8.27;87.83
70830;SHT30;58451;51.550;7.208;2023-12-20T00:20:07;8.27;87.80
70830;SHT30;58451;51.550;7.208;2023-12-20T00:21:39;8.23;87.75
70830;SHT30;58451;51.550;7.208;2023-12-20T00:23:11;8.22;87.65
70830;SHT30;58451;51.550;7.208;2023-12-20T00:24:43;8.20;87.60
70830;SHT30;58451;51.550;7.208;2023-12-20T00:26:15;8.18;87.40
70830;SHT30;58451;51.550;7.208;2023-12-20T00:27:47;8.14;87.37
70830;SHT30;58451;51.550;7.208;2023-12-20T00:29:19;8.10;87.32
70830;SHT30;58451;51.550;7.208;2023-12-20T00:30:51;8.07;87.12
70830;SHT30;58451;51.550;7.208;2023-12-20T00:32:23;8.04;86.88
70830;SHT30;58451;51.550;7.208;2023-12-20T00:33:55;8.02;86.83
70830;SHT30;58451;51.550;7.208;2023-12-20T00:35:27;7.98;86.90
70830;SHT30;58451;51.550;7.208;2023-12-20T00:36:58;7.95;86.75
70830;SHT30;58451;51.550;7.208;2023-12-20T00:38:30;7.91;86.75
70830;SHT30;58451;51.550;7.208;2023-12-20T00:40:02;7.89;86.60
70830;SHT30;58451;51.550;7.208;2023-12-20T00:41:35;7.86;86.57
70830;SHT30;58451;51.550;7.208;2023-12-20T00:43:07;7.82;86.58
70830;SHT30;58451;51.550;7.208;2023-12-20T00:44:38;7.79;86.55
70830;SHT30;58451;51.550;7.208;2023-12-20T00:46:10;7.76;86.60
70830;SHT30;58451;51.550;7.208;2023-12-20T00:47:42;7.74;86.63
70830;SHT30;58451;51.550;7.208;2023-12-20T00:49:15;7.72;86.52
70830;SHT30;58451;51.550;7.208;2023-12-20T00:50:47;7.73;86.52
70830;SHT30;58451;51.550;7.208;2023-12-20T00:52:18;7.73;86.50
70830;SHT30;58451;51.550;7.208;2023-12-20T00:53:50;7.75;86.60
70830;SHT30;58451;51.550;7.208;2023-12-20T00:55:26;7.74;86.58
70830;SHT30;58451;51.550;7.208;2023-12-20T00:56:58;7.73;86.53
70830;SHT30;58451;51.550;7.208;2023-12-20T00:58:31;7.74;86.52
70830;SHT30;58451;51.550;7.208;2023-12-20T01:00:03;7.74;86.48
70830;SHT30;58451;51.550;7.208;2023-12-20T01:01:35;7.74;86.52
70830;SHT30;58451;51.550;7.208;2023-12-20T01:03:07;7.74;86.58
70830;SHT30;58451;51.550;7.208;2023-12-20T01:04:39;7.74;86.52
70830;SHT30;58451;51.550;7.208;2023-12-20T01:06:11;7.74;86.45
70830;SHT30;58451;51.550;7.208;2023-12-20T01:07:43;7.74;86.40
70830;SHT30;58451;51.550;7.208;2023-12-20T01:09:15;7.74;86.48
70830;SHT30;58451;51.550;7.208;2023-12-20T01:10:47;7.74;86.45
70830;SHT30;58451;51.550;7.208;2023-12-20T01:12:18;7.72;86.45
70830;SHT30;58451;51.550;7.208;2023-12-20T01:13:51;7.72;86.48
70830;SHT30;58451;51.550;7.208;2023-12-20T01:15:23;7.73;86.50
70830;SHT30;58451;51.550;7.208;2023-12-20T01:16:55;7.72;86.38
70830;SHT30;58451;51.550;7.208;2023-12-20T01:18:27;7.73;86.35
70830;SHT30;58451;51.550;7.208;2023-12-20T01:19:59;7.73;86.33
70830;SHT30;58451;51.550;7.208;2023-12-20T01:21:31;7.74;86.40
70830;SHT30;58451;51.550;7.208;2023-12-20T01:23:03;7.72;86.38
70830;SHT30;58451;51.550;7.208;2023-12-20T01:24:35;7.74;86.27
70830;SHT30;58451;51.550;7.208;2023-12-20T01:26:06;7.72;86.25
70830;SHT30;58451;51.550;7.208;2023-12-20T01:27:38;7.73;86.30
70830;SHT30;58451;51.550;7.208;2023-12-20T01:29:10;7.73;86.25
70830;SHT30;58451;51.550;7.208;2023-12-20T01:30:42;7.72;86.18
70830;SHT30;58451;51.550;7.208;2023-12-20T01:32:14;7.72;86.07
70830;SHT30;58451;51.550;7.208;2023-12-20T01:33:53;7.71;85.93
70830;SHT30;58451;51.550;7.208;2023-12-20T01:35:24;7.72;86.08
70830;SHT30;58451;51.550;7.208;2023-12-20T01:36:56;7.69;86.07
70830;SHT30;58451;51.550;7.208;2023-12-20T01:38:31;7.67;86.00
70830;SHT30;58451;51.550;7.208;2023-12-20T01:40:03;7.63;86.05
70830;SHT30;58451;51.550;7.208;2023-12-20T01:41:36;7.57;85.92
70830;SHT30;58451;51.550;7.208;2023-12-20T01:43:08;7.51;85.47
70830;SHT30;58451;51.550;7.208;2023-12-20T01:44:41;7.48;85.50
70830;SHT30;58451;51.550;7.208;2023-12-20T01:46:13;7.44;85.47
70830;SHT30;58451;51.550;7.208;2023-12-20T01:47:46;7.40;85.45
70830;SHT30;58451;51.550;7.208;2023-12-20T01:49:18;7.37;85.45
70830;SHT30;58451;51.550;7.208;2023-12-20T01:50:51;7.34;85.50
70830;SHT30;58451;51.550;7.208;2023-12-20T01:52:23;7.29;85.55
70830;SHT30;58451;51.550;7.208;2023-12-20T01:53:58;7.26;85.58
70830;SHT30;58451;51.550;7.208;2023-12-20T01:55:32;7.24;85.53
70830;SHT30;58451;51.550;7.208;2023-12-20T01:57:06;7.22;85.57
70830;SHT30;58451;51.550;7.208;2023-12-20T01:58:42;7.22;85.58
70830;SHT30;58451;51.550;7.208;2023-12-20T02:00:19;7.21;85.63
70830;SHT30;58451;51.550;7.208;2023-12-20T02:01:55;7.20;85.60
70830;SHT30;58451;51.550;7.208;2023-12-20T02:03:27;7.18;85.60
70830;SHT30;58451;51.550;7.208;2023-12-20T02:05:00;7.15;85.55
70830;SHT30;58451;51.550;7.208;2023-12-20T02:06:33;7.14;85.48
70830;SHT30;58451;51.550;7.208;2023-12-20T02:08:06;7.12;85.42
70830;SHT30;58451;51.550;7.208;2023-12-20T02:09:38;7.13;85.42
70830;SHT30;58451;51.550;7.208;2023-12-20T02:11:11;7.13;85.43
70830;SHT30;58451;51.550;7.208;2023-12-20T02:12:43;7.11;85.35
70830;SHT30;58451;51.550;7.208;2023-12-20T02:14:15;7.11;85.38
70830;SHT30;58451;51.550;7.208;2023-12-20T02:15:47;7.09;85.28
70830;SHT30;58451;51.550;7.208;2023-12-20T02:17:19;7.08;85.40
70830;SHT30;58451;51.550;7.208;2023-12-20T02:18:52;7.05;85.48
70830;SHT30;58451;51.550;7.208;2023-12-20T02:20:24;7.04;85.50
70830;SHT30;58451;51.550;7.208;2023-12-20T02:22:08;7.01;85.52
70830;SHT30;58451;51.550;7.208;2023-12-20T02:23:43;6.99;85.50
70830;SHT30;58451;51.550;7.208;2023-12-20T02:25:15;6.96;85.50
70830;SHT30;58451;51.550;7.208;2023-12-20T02:26:47;6.93;85.27
70830;SHT30;58451;51.550;7.208;2023-12-20T02:28:19;6.94;85.43
70830;SHT30;58451;51.550;7.208;2023-12-20T02:29:53;6.96;85.47
70830;SHT30;58451;51.550;7.208;2023-12-20T02:31:24;6.97;85.50
70830;SHT30;58451;51.550;7.208;2023-12-20T02:32:57;6.99;85.53
70830;SHT30;58451;51.550;7.208;2023-12-20T02:34:32;7.00;85.60
70830;SHT30;58451;51.550;7.208;2023-12-20T02:36:04;7.01;85.55
70830;SHT30;58451;51.550;7.208;2023-12-20T02:37:38;7.02;85.50
70830;SHT30;58451;51.550;7.208;2023-12-20T02:39:09;7.04;85.47
70830;SHT30;58451;51.550;7.208;2023-12-20T02:40:41;7.06;85.55
70830;SHT30;58451;51.550;7.208;2023-12-20T02:42:20;7.08;85.47
70830;SHT30;58451;51.550;7.208;2023-12-20T02:43:52;7.08;85.37
70830;SHT30;58451;51.550;7.208;2023-12-20T02:45:24;7.09;85.37
70830;SHT30;58451;51.550;7.208;2023-12-20T02:46:57;7.10;85.42
70830;SHT30;58451;51.550;7.208;2023-12-20T02:48:29;7.11;85.35
70830;SHT30;58451;51.550;7.208;2023-12-20T02:50:01;7.13;85.35
70830;SHT30;58451;51.550;7.208;2023-12-20T02:51:33;7.13;85.40
70830;SHT30;58451;51.550;7.208;2023-12-20T02:53:05;7.13;85.42
70830;SHT30;58451;51.550;7.208;2023-12-20T02:54:37;7.13;85.30
70830;SHT30;58451;51.550;7.208;2023-12-20T02:56:08;7.16;85.30
70830;SHT30;58451;51.550;7.208;2023-12-20T02:57:40;7.14;85.22
70830;SHT30;58451;51.550;7.208;2023-12-20T02:59:14;7.14;85.18
70830;SHT30;58451;51.550;7.208;2023-12-20T03:00:48;7.15;85.17
70830;SHT30;58451;51.550;7.208;2023-12-20T03:02:20;7.14;85.12
70830;SHT30;58451;51.550;7.208;2023-12-20T03:03:52;7.12;85.03
70830;SHT30;58451;51.550;7.208;2023-12-20T03:05:24;7.10;84.93
70830;SHT30;58451;51.550;7.208;2023-12-20T03:06:56;7.10;84.85
70830;SHT30;58451;51.550;7.208;2023-12-20T03:08:27;7.10;84.87
70830;SHT30;58451;51.550;7.208;2023-12-20T03:10:02;7.07;84.67
70830;SHT30;58451;51.550;7.208;2023-12-20T03:11:50;7.05;84.30
70830;SHT30;58451;51.550;7.208;2023-12-20T03:13:22;7.07;84.48
70830;SHT30;58451;51.550;7.208;2023-12-20T03:14:54;7.07;84.57
70830;SHT30;58451;51.550;7.208;2023-12-20T03:16:26;7.08;84.60
70830;SHT30;58451;51.550;7.208;2023-12-20T03:17:57;7.07;84.60
70830;SHT30;58451;51.550;7.208;2023-12-20T03:19:31;7.05;84.53
70830;SHT30;58451;51.550;7.208;2023-12-20T03:21:03;7.05;84.38
70830;SHT30;58451;51.550;7.208;2023-12-20T03:22:36;7.01;84.13
70830;SHT30;58451;51.550;7.208;2023-12-20T03:24:08;6.99;84.23
70830;SHT30;58451;51.550;7.208;2023-12-20T03:25:40;6.98;84.30
70830;SHT30;58451;51.550;7.208;2023-12-20T03:27:12;6.95;84.25
70830;SHT30;58451;51.550;7.208;2023-12-20T03:28:43;6.93;84.23
70830;SHT30;58451;51.550;7.208;2023-12-20T03:30:15;6.91;84.22
70830;SHT30;58451;51.550;7.208;2023-12-20T03:31:47;6.89;84.12
70830;SHT30;58451;51.550;7.208;2023-12-20T03:33:22;6.87;84.12
70830;SHT30;58451;51.550;7.208;2023-12-20T03:34:54;6.86;84.07
70830;SHT30;58451;51.550;7.208;2023-12-20T03:36:26;6.85;84.08
70830;SHT30;58451;51.550;7.208;2023-12-20T03:37:58;6.84;84.13
70830;SHT30;58451;51.550;7.208;2023-12-20T03:39:31;6.84;84.22
70830;SHT30;58451;51.550;7.208;2023-12-20T03:41:04;6.82;84.13
70830;SHT30;58451;51.550;7.208;2023-12-20T03:42:36;6.83;84.17
70830;SHT30;58451;51.550;7.208;2023-12-20T03:44:08;6.83;84.20
70830;SHT30;58451;51.550;7.208;2023-12-20T03:45:39;6.81;84.18
70830;SHT30;58451;51.550;7.208;2023-12-20T03:47:11;6.79;84.25
70830;SHT30;58451;51.550;7.208;2023-12-20T03:48:43;6.80;84.30
70830;SHT30;58451;51.550;7.208;2023-12-20T03:50:15;6.78;84.30
70830;SHT30;58451;51.550;7.208;2023-12-20T03:51:47;6.77;84.30
70830;SHT30;58451;51.550;7.208;2023-12-20T03:53:19;6.76;84.40
70830;SHT30;58451;51.550;7.208;2023-12-20T03:54:51;6.75;84.45
70830;SHT30;58451;51.550;7.208;2023-12-20T03:56:23;6.72;84.48
70830;SHT30;58451;51.550;7.208;2023-12-20T03:57:55;6.73;84.60
70830;SHT30;58451;51.550;7.208;2023-12-20T03:59:27;6.72;84.65
70830;SHT30;58451;51.550;7.208;2023-12-20T04:00:58;6.71;84.67
70830;SHT30;58451;51.550;7.208;2023-12-20T04:02:30;6.72;84.70
70830;SHT30;58451;51.550;7.208;2023-12-20T04:04:02;6.70;84.70
70830;SHT30;58451;51.550;7.208;2023-12-20T04:05:35;6.69;84.72
70830;SHT30;58451;51.550;7.208;2023-12-20T04:07:06;6.69;84.72
70830;SHT30;58451;51.550;7.208;2023-12-20T04:08:38;6.70;84.77
70830;SHT30;58451;51.550;7.208;2023-12-20T04:10:10;6.69;84.72
70830;SHT30;58451;51.550;7.208;2023-12-20T04:11:42;6.67;84.77
70830;SHT30;58451;51.550;7.208;2023-12-20T04:13:14;6.67;84.75
70830;SHT30;58451;51.550;7.208;2023-12-20T04:14:46;6.67;84.80
70830;SHT30;58451;51.550;7.208;2023-12-20T04:16:18;6.66;84.80
70830;SHT30;58451;51.550;7.208;2023-12-20T04:17:49;6.64;84.82
70830;SHT30;58451;51.550;7.208;2023-12-20T04:19:21;6.64;84.87
70830;SHT30;58451;51.550;7.208;2023-12-20T04:20:53;6.63;84.87
70830;SHT30;58451;51.550;7.208;2023-12-20T04:22:25;6.61;84.88
70830;SHT30;58451;51.550;7.208;2023-12-20T04:23:57;6.57;84.85
70830;SHT30;58451;51.550;7.208;2023-12-20T04:25:29;6.56;84.85
70830;SHT30;58451;51.550;7.208;2023-12-20T04:27:01;6.56;84.90
70830;SHT30;58451;51.550;7.208;2023-12-20T04:28:33;6.54;84.90
70830;SHT30;58451;51.550;7.208;2023-12-20T04:30:06;6.53;84.88
70830;SHT30;58451;51.550;7.208;2023-12-20T04:31:39;6.52;84.92
70830;SHT30;58451;51.550;7.208;2023-12-20T04:33:11;6.54;84.90
70830;SHT30;58451;51.550;7.208;2023-12-20T04:34:42;6.55;84.92
70830;SHT30;58451;51.550;7.208;2023-12-20T04:36:14;6.55;84.82
70830;SHT30;58451;51.550;7.208;2023-12-20T04:37:46;6.55;84.88
70830;SHT30;58451;51.550;7.208;2023-12-20T04:39:20;6.55;84.82
70830;SHT30;58451;51.550;7.208;2023-12-20T04:40:53;6.55;84.80
70830;SHT30;58451;51.550;7.208;2023-12-20T04:42:24;6.57;84.83
70830;SHT30;58451;51.550;7.208;2023-12-20T04:43:56;6.57;84.83
70830;SHT30;58451;51.550;7.208;2023-12-20T04:45:28;6.56;84.83
70830;SHT30;58451;51.550;7.208;2023-12-20T04:47:00;6.57;84.88
70830;SHT30;58451;51.550;7.208;2023-12-20T04:48:32;6.58;84.92
70830;SHT30;58451;51.550;7.208;2023-12-20T04:50:04;6.59;84.92
70830;SHT30;58451;51.550;7.208;2023-12-20T04:51:38;6.58;84.85
70830;SHT30;58451;51.550;7.208;2023-12-20T04:53:10;6.60;84.92
70830;SHT30;58451;51.550;7.208;2023-12-20T04:54:42;6.60;84.83
70830;SHT30;58451;51.550;7.208;2023-12-20T04:56:15;6.62;84.87
70830;SHT30;58451;51.550;7.208;2023-12-20T04:57:47;6.62;84.83
70830;SHT30;58451;51.550;7.208;2023-12-20T04:59:19;6.64;84.82
70830;SHT30;58451;51.550;7.208;2023-12-20T05:00:51;6.64;84.87
70830;SHT30;58451;51.550;7.208;2023-12-20T05:02:23;6.65;84.83
70830;SHT30;58451;51.550;7.208;2023-12-20T05:03:55;6.66;84.75
70830;SHT30;58451;51.550;7.208;2023-12-20T05:05:27;6.66;84.40
70830;SHT30;58451;51.550;7.208;2023-12-20T05:06:59;6.66;84.40
70830;SHT30;58451;51.550;7.208;2023-12-20T05:08:31;6.66;84.30
70830;SHT30;58451;51.550;7.208;2023-12-20T05:10:03;6.65;84.18
70830;SHT30;58451;51.550;7.208;2023-12-20T05:11:38;6.63;84.18
70830;SHT30;58451;51.550;7.208;2023-12-20T05:13:10;6.63;84.20
70830;SHT30;58451;51.550;7.208;2023-12-20T05:14:42;6.60;84.20
70830;SHT30;58451;51.550;7.208;2023-12-20T05:16:14;6.58;84.25
70830;SHT30;58451;51.550;7.208;2023-12-20T05:17:49;6.57;84.30
70830;SHT30;58451;51.550;7.208;2023-12-20T05:19:21;6.55;84.27
70830;SHT30;58451;51.550;7.208;2023-12-20T05:20:54;6.54;84.30
70830;SHT30;58451;51.550;7.208;2023-12-20T05:22:30;6.55;84.30
70830;SHT30;58451;51.550;7.208;2023-12-20T05:24:01;6.55;84.35
70830;SHT30;58451;51.550;7.208;2023-12-20T05:25:33;6.56;84.40
70830;SHT30;58451;51.550;7.208;2023-12-20T05:27:05;6.56;84.42
70830;SHT30;58451;51.550;7.208;2023-12-20T05:28:37;6.57;84.40
70830;SHT30;58451;51.550;7.208;2023-12-20T05:30:09;6.58;84.43
70830;SHT30;58451;51.550;7.208;2023-12-20T05:31:42;6.57;84.38
70830;SHT30;58451;51.550;7.208;2023-12-20T05:33:14;6.58;84.30
70830;SHT30;58451;51.550;7.208;2023-12-20T05:34:46;6.60;84.32
70830;SHT30;58451;51.550;7.208;2023-12-20T05:36:18;6.60;84.35
70830;SHT30;58451;51.550;7.208;2023-12-20T05:37:50;6.59;84.37
70830;SHT30;58451;51.550;7.208;2023-12-20T05:39:22;6.58;84.33
70830;SHT30;58451;51.550;7.208;2023-12-20T05:40:54;6.57;84.32
70830;SHT30;58451;51.550;7.208;2023-12-20T05:42:26;6.56;84.23
70830;SHT30;58451;51.550;7.208;2023-12-20T05:43:57;6.56;84.20
70830;SHT30;58451;51.550;7.208;2023-12-20T05:45:29;6.56;84.15
70830;SHT30;58451;51.550;7.208;2023-12-20T05:47:01;6.56;84.18
70830;SHT30;58451;51.550;7.208;2023-12-20T05:48:33;6.55;84.22
70830;SHT30;58451;51.550;7.208;2023-12-20T05:50:05;6.56;84.30
70830;SHT30;58451;51.550;7.208;2023-12-20T05:51:37;6.56;84.30
70830;SHT30;58451;51.550;7.208;2023-12-20T05:53:09;6.56;84.30
70830;SHT30;58451;51.550;7.208;2023-12-20T05:54:41;6.56;84.32
70830;SHT30;58451;51.550;7.208;2023-12-20T05:56:13;6.57;84.30
70830;SHT30;58451;51.550;7.208;2023-12-20T05:57:45;6.57;84.28
70830;SHT30;58451;51.550;7.208;2023-12-20T05:59:18;6.56;84.20
70830;SHT30;58451;51.550;7.208;2023-12-20T06:00:49;6.56;84.30
70830;SHT30;58451;51.550;7.208;2023-12-20T06:02:22;6.55;84.30
70830;SHT30;58451;51.550;7.208;2023-12-20T06:03:53;6.55;84.30
70830;SHT30;58451;51.550;7.208;2023-12-20T06:05:25;6.55;84.33
70830;SHT30;58451;51.550;7.208;2023-12-20T06:06:57;6.55;84.32
70830;SHT30;58451;51.550;7.208;2023-12-20T06:08:29;6.54;84.22
70830;SHT30;58451;51.550;7.208;2023-12-20T06:10:01;6.55;84.30
70830;SHT30;58451;51.550;7.208;2023-12-20T06:11:33;6.55;84.38
70830;SHT30;58451;51.550;7.208;2023-12-20T06:13:05;6.55;84.30
70830;SHT30;58451;51.550;7.208;2023-12-20T06:14:38;6.55;84.30
70830;SHT30;58451;51.550;7.208;2023-12-20T06:16:10;6.55;84.23
70830;SHT30;58451;51.550;7.208;2023-12-20T06:17:42;6.55;84.20
70830;SHT30;58451;51.550;7.208;2023-12-20T06:19:14;6.57;84.30
70830;SHT30;58451;51.550;7.208;2023-12-20T06:20:47;6.57;84.22
70830;SHT30;58451;51.550;7.208;2023-12-20T06:22:18;6.57;84.23
70830;SHT30;58451;51.550;7.208;2023-12-20T06:23:50;6.57;84.17
70830;SHT30;58451;51.550;7.208;2023-12-20T06:25:22;6.58;84.18
70830;SHT30;58451;51.550;7.208;2023-12-20T06:26:54;6.58;84.17
70830;SHT30;58451;51.550;7.208;2023-12-20T06:28:27;6.60;84.23
70830;SHT30;58451;51.550;7.208;2023-12-20T06:29:59;6.59;84.12
70830;SHT30;58451;51.550;7.208;2023-12-20T06:31:31;6.61;84.10
70830;SHT30;58451;51.550;7.208;2023-12-20T06:33:04;6.61;84.08
70830;SHT30;58451;51.550;7.208;2023-12-20T06:34:38;6.61;84.15
70830;SHT30;58451;51.550;7.208;2023-12-20T06:36:13;6.63;84.20
70830;SHT30;58451;51.550;7.208;2023-12-20T06:37:45;6.64;84.20
70830;SHT30;58451;51.550;7.208;2023-12-20T06:39:18;6.65;84.17
70830;SHT30;58451;51.550;7.208;2023-12-20T06:40:50;6.66;84.20
70830;SHT30;58451;51.550;7.208;2023-12-20T06:42:22;6.66;84.13
70830;SHT30;58451;51.550;7.208;2023-12-20T06:43:54;6.66;83.97
70830;SHT30;58451;51.550;7.208;2023-12-20T06:45:26;6.65;83.88
70830;SHT30;58451;51.550;7.208;2023-12-20T06:46:58;6.66;83.98
70830;SHT30;58451;51.550;7.208;2023-12-20T06:48:30;6.68;84.07
70830;SHT30;58451;51.550;7.208;2023-12-20T06:50:03;6.68;84.12
70830;SHT30;58451;51.550;7.208;2023-12-20T06:51:36;6.70;84.03
70830;SHT30;58451;51.550;7.208;2023-12-20T06:53:08;6.71;84.07
70830;SHT30;58451;51.550;7.208;2023-12-20T06:54:40;6.72;84.08
70830;SHT30;58451;51.550;7.208;2023-12-20T06:56:11;6.74;84.08
70830;SHT30;58451;51.550;7.208;2023-12-20T06:57:50;6.72;83.92
70830;SHT30;58451;51.550;7.208;2023-12-20T06:59:22;6.72;83.78
70830;SHT30;58451;51.550;7.208;2023-12-20T07:00:54;6.75;83.68
70830;SHT30;58451;51.550;7.208;2023-12-20T07:02:26;6.76;83.85
70830;SHT30;58451;51.550;7.208;2023-12-20T07:04:00;6.77;83.83
70830;SHT30;58451;51.550;7.208;2023-12-20T07:05:32;6.76;83.62
70830;SHT30;58451;51.550;7.208;2023-12-20T07:07:04;6.77;83.63
70830;SHT30;58451;51.550;7.208;2023-12-20T07:08:36;6.78;83.52
70830;SHT30;58451;51.550;7.208;2023-12-20T07:10:08;6.78;83.38
70830;SHT30;58451;51.550;7.208;2023-12-20T07:11:40;6.80;83.33
70830;SHT30;58451;51.550;7.208;2023-12-20T07:13:12;6.81;83.20
70830;SHT30;58451;51.550;7.208;2023-12-20T07:14:46;6.83;83.15
70830;SHT30;58451;51.550;7.208;2023-12-20T07:16:18;6.84;83.12
70830;SHT30;58451;51.550;7.208;2023-12-20T07:17:50;6.86;83.25
70830;SHT30;58451;51.550;7.208;2023-12-20T07:19:22;6.84;83.00
70830;SHT30;58451;51.550;7.208;2023-12-20T07:20:53;6.87;82.98
70830;SHT30;58451;51.550;7.208;2023-12-20T07:22:26;6.87;83.02
70830;SHT30;58451;51.550;7.208;2023-12-20T07:24:00;6.88;82.93
70830;SHT30;58451;51.550;7.208;2023-12-20T07:25:32;6.88;83.00
70830;SHT30;58451;51.550;7.208;2023-12-20T07:27:04;6.88;82.83
70830;SHT30;58451;51.550;7.208;2023-12-20T07:28:36;6.89;82.97
70830;SHT30;58451;51.550;7.208;2023-12-20T07:30:08;6.88;82.90
70830;SHT30;58451;51.550;7.208;2023-12-20T07:31:41;6.88;82.70
70830;SHT30;58451;51.550;7.208;2023-12-20T07:33:13;6.90;82.80
70830;SHT30;58451;51.550;7.208;2023-12-20T07:34:45;6.91;82.78
70830;SHT30;58451;51.550;7.208;2023-12-20T07:36:19;6.90;82.78
70830;SHT30;58451;51.550;7.208;2023-12-20T07:37:52;6.91;82.83
70830;SHT30;58451;51.550;7.208;2023-12-20T07:39:24;6.92;82.68
70830;SHT30;58451;51.550;7.208;2023-12-20T07:40:56;6.92;82.62
70830;SHT30;58451;51.550;7.208;2023-12-20T07:42:28;6.91;82.35
70830;SHT30;58451;51.550;7.208;2023-12-20T07:44:00;6.94;82.55
70830;SHT30;58451;51.550;7.208;2023-12-20T07:45:32;6.95;82.58
70830;SHT30;58451;51.550;7.208;2023-12-20T07:47:04;6.94;82.40
70830;SHT30;58451;51.550;7.208;2023-12-20T07:48:36;6.98;82.47
70830;SHT30;58451;51.550;7.208;2023-12-20T07:50:08;6.98;82.48
70830;SHT30;58451;51.550;7.208;2023-12-20T07:51:42;6.99;82.52
70830;SHT30;58451;51.550;7.208;2023-12-20T07:53:13;7.00;82.47
70830;SHT30;58451;51.550;7.208;2023-12-20T07:54:45;7.02;82.47
70830;SHT30;58451;51.550;7.208;2023-12-20T07:56:18;7.01;82.32
70830;SHT30;58451;51.550;7.208;2023-12-20T07:57:51;7.02;82.25
70830;SHT30;58451;51.550;7.208;2023-12-20T07:59:23;7.03;82.28
70830;SHT30;58451;51.550;7.208;2023-12-20T08:01:03;7.05;82.35
70830;SHT30;58451;51.550;7.208;2023-12-20T08:02:35;7.05;82.22
70830;SHT30;58451;51.550;7.208;2023-12-20T08:04:07;7.06;82.08
70830;SHT30;58451;51.550;7.208;2023-12-20T08:05:39;7.07;82.05
70830;SHT30;58451;51.550;7.208;2023-12-20T08:07:11;7.10;82.17
70830;SHT30;58451;51.550;7.208;2023-12-20T08:08:43;7.11;82.20
70830;SHT30;58451;51.550;7.208;2023-12-20T08:10:16;7.11;82.08
70830;SHT30;58451;51.550;7.208;2023-12-20T08:11:49;7.12;81.98
70830;SHT30;58451;51.550;7.208;2023-12-20T08:13:21;7.13;82.13
70830;SHT30;58451;51.550;7.208;2023-12-20T08:14:57;7.14;82.08
70830;SHT30;58451;51.550;7.208;2023-12-20T08:16:29;7.14;82.13
70830;SHT30;58451;51.550;7.208;2023-12-20T08:18:01;7.15;82.12
70830;SHT30;58451;51.550;7.208;2023-12-20T08:19:35;7.18;82.20
70830;SHT30;58451;51.550;7.208;2023-12-20T08:21:06;7.20;82.05
70830;SHT30;58451;51.550;7.208;2023-12-20T08:22:43;7.21;81.93
70830;SHT30;58451;51.550;7.208;2023-12-20T08:24:14;7.23;81.80
70830;SHT30;58451;51.550;7.208;2023-12-20T08:25:47;7.24;81.55
70830;SHT30;58451;51.550;7.208;2023-12-20T08:27:19;7.25;81.62
70830;SHT30;58451;51.550;7.208;2023-12-20T08:28:51;7.24;81.55
70830;SHT30;58451;51.550;7.208;2023-12-20T08:30:23;7.25;81.57
70830;SHT30;58451;51.550;7.208;2023-12-20T08:31:56;7.25;81.57
70830;SHT30;58451;51.550;7.208;2023-12-20T08:33:28;7.26;81.53
70830;SHT30;58451;51.550;7.208;2023-12-20T08:35:00;7.29;81.78
70830;SHT30;58451;51.550;7.208;2023-12-20T08:36:32;7.28;81.33
70830;SHT30;58451;51.550;7.208;2023-12-20T08:38:04;7.29;81.47
70830;SHT30;58451;51.550;7.208;2023-12-20T08:39:36;7.30;81.65
70830;SHT30;58451;51.550;7.208;2023-12-20T08:41:08;7.30;81.57
70830;SHT30;58451;51.550;7.208;2023-12-20T08:42:40;7.31;81.37
70830;SHT30;58451;51.550;7.208;2023-12-20T08:44:12;7.33;81.33
70830;SHT30;58451;51.550;7.208;2023-12-20T08:45:44;7.33;81.25
70830;SHT30;58451;51.550;7.208;2023-12-20T08:47:16;7.34;81.20
70830;SHT30;58451;51.550;7.208;2023-12-20T08:48:49;7.35;80.98
70830;SHT30;58451;51.550;7.208;2023-12-20T08:50:21;7.36;81.03
70830;SHT30;58451;51.550;7.208;2023-12-20T08:51:53;7.37;81.00
70830;SHT30;58451;51.550;7.208;2023-12-20T08:53:25;7.36;81.05
70830;SHT30;58451;51.550;7.208;2023-12-20T08:54:56;7.36;80.80
70830;SHT30;58451;51.550;7.208;2023-12-20T08:56:28;7.36;80.82
70830;SHT30;58451;51.550;7.208;2023-12-20T08:58:00;7.34;80.70
70830;SHT30;58451;51.550;7.208;2023-12-20T08:59:33;7.36;80.73
70830;SHT30;58451;51.550;7.208;2023-12-20T09:01:05;7.37;80.80
70830;SHT30;58451;51.550;7.208;2023-12-20T09:02:37;7.38;80.83
70830;SHT30;58451;51.550;7.208;2023-12-20T09:04:09;7.40;80.95
70830;SHT30;58451;51.550;7.208;2023-12-20T09:05:41;7.41;80.72
70830;SHT30;58451;51.550;7.208;2023-12-20T09:08:58;7.45;80.43
70830;SHT30;58451;51.550;7.208;2023-12-20T09:10:30;7.49;80.43
70830;SHT30;58451;51.550;7.208;2023-12-20T09:12:02;7.49;80.57
70830;SHT30;58451;51.550;7.208;2023-12-20T09:13:34;7.49;80.35
70830;SHT30;58451;51.550;7.208;2023-12-20T09:15:06;7.48;80.38
70830;SHT30;58451;51.550;7.208;2023-12-20T09:16:38;7.49;80.45
70830;SHT30;58451;51.550;7.208;2023-12-20T09:18:10;7.50;80.45
70830;SHT30;58451;51.550;7.208;2023-12-20T09:19:42;7.49;80.33
70830;SHT30;58451;51.550;7.208;2023-12-20T09:21:15;7.51;80.48
70830;SHT30;58451;51.550;7.208;2023-12-20T09:22:47;7.49;80.42
70830;SHT30;58451;51.550;7.208;2023-12-20T09:24:19;7.51;80.27
70830;SHT30;58451;51.550;7.208;2023-12-20T09:25:50;7.49;80.23
70830;SHT30;58451;51.550;7.208;2023-12-20T09:27:26;7.51;80.15
70830;SHT30;58451;51.550;7.208;2023-12-20T09:28:58;7.50;80.20
70830;SHT30;58451;51.550;7.208;2023-12-20T09:30:30;7.51;80.15
70830;SHT30;58451;51.550;7.208;2023-12-20T09:32:01;7.53;80.15
70830;SHT30;58451;51.550;7.208;2023-12-20T09:33:34;7.54;80.05
70830;SHT30;58451;51.550;7.208;2023-12-20T09:35:06;7.53;79.90
70830;SHT30;58451;51.550;7.208;2023-12-20T09:36:40;7.53;79.98
70830;SHT30;58451;51.550;7.208;2023-12-20T09:38:17;7.54;80.08
70830;SHT30;58451;51.550;7.208;2023-12-20T09:39:49;7.54;79.90
70830;SHT30;58451;51.550;7.208;2023-12-20T09:41:21;7.55;79.98
70830;SHT30;58451;51.550;7.208;2023-12-20T09:43:08;7.57;79.78
70830;SHT30;58451;51.550;7.208;2023-12-20T09:44:49;7.58;79.70
70830;SHT30;58451;51.550;7.208;2023-12-20T09:46:21;7.60;79.57
70830;SHT30;58451;51.550;7.208;2023-12-20T09:48:01;7.62;79.35
70830;SHT30;58451;51.550;7.208;2023-12-20T09:49:36;7.66;79.58
70830;SHT30;58451;51.550;7.208;2023-12-20T09:51:09;7.70;79.65
70830;SHT30;58451;51.550;7.208;2023-12-20T09:52:41;7.70;79.38
70830;SHT30;58451;51.550;7.208;2023-12-20T09:54:16;7.76;79.17